Time;durP1;ratioP1;P1;durP2;ratioP2;P2;SDS_P1;SDS_P2;PMS_P1;PMS_P2;Temp;Humidity;BMP_temperature;BMP_pressure;BME280_temperature;BME280_humidity;BME280_pressure;Samples;Min_cycle;Max_cycle;Signal;HPM_P1;HPM_P2
2021/11/10 00:00:48;;;;;;;51.85;40.97;;;;;;;;;;4975329;28;20038;-68
2021/11/10 00:03:14;;;;;;;60.42;39.45;;;;;;;;;;4969468;28;20034;-67
2021/11/10 00:05:41;;;;;;;48.78;38.08;;;;;;;;;;4989585;28;20029;-68
2021/11/10 00:08:07;;;;;;;52.08;40.80;;;;;;;;;;4972977;28;20069;-68
2021/11/10 00:10:34;;;;;;;48.72;39.15;;;;;;;;;;4954971;28;20133;-68
2021/11/10 00:13:14;;;;;;;52.65;38.78;;;;;;;;;;4975077;28;20031;-68
2021/11/10 00:15:40;;;;;;;51.45;39.38;;;;;;;;;;4974202;28;20058;-68
2021/11/10 00:18:06;;;;;;;55.60;40.47;;;;;;;;;;4969508;28;20026;-68
2021/11/10 00:20:32;;;;;;;62.70;43.47;;;;;;;;;;4979228;28;20034;-68
2021/11/10 00:22:58;;;;;;;59.83;42.30;;;;;;;;;;4958165;28;20030;-67
2021/11/10 00:25:24;;;;;;;52.08;40.35;;;;;;;;;;4968470;28;20042;-68
2021/11/10 00:27:50;;;;;;;52.75;39.03;;;;;;;;;;4970210;28;20037;-68
2021/11/10 00:30:16;;;;;;;64.30;41.50;;;;;;;;;;4963900;28;20018;-68
2021/11/10 00:32:42;;;;;;;59.00;41.20;;;;;;;;;;4971222;28;20033;-67
2021/11/10 00:35:09;;;;;;;52.33;39.33;;;;;;;;;;4978547;28;20081;-68
2021/11/10 00:37:35;;;;;;;57.33;41.85;;;;;;;;;;4971017;28;20039;-68
2021/11/10 00:40:01;;;;;;;55.75;41.58;;;;;;;;;;4977692;28;20586;-68
2021/11/10 00:42:27;;;;;;;59.15;40.85;;;;;;;;;;4945859;28;20038;-68
2021/11/10 00:44:53;;;;;;;57.42;39.17;;;;;;;;;;4953596;28;20031;-68
2021/11/10 00:47:19;;;;;;;55.88;40.58;;;;;;;;;;4954060;28;20028;-68
2021/11/10 00:49:45;;;;;;;53.03;41.80;;;;;;;;;;4964386;28;20034;-68
2021/11/10 00:52:11;;;;;;;64.13;42.08;;;;;;;;;;4972533;28;20029;-68
2021/11/10 00:54:37;;;;;;;54.53;41.55;;;;;;;;;;4967462;28;20049;-68
2021/11/10 00:57:04;;;;;;;55.60;40.88;;;;;;;;;;4979715;28;20034;-68
2021/11/10 00:59:30;;;;;;;50.97;40.70;;;;;;;;;;4966242;28;20543;-68
2021/11/10 01:01:56;;;;;;;56.53;40.88;;;;;;;;;;4956550;28;20026;-68
2021/11/10 01:04:22;;;;;;;51.53;42.65;;;;;;;;;;4976240;28;20046;-68
2021/11/10 01:06:48;;;;;;;49.45;39.22;;;;;;;;;;4985486;28;20446;-68
2021/11/10 01:09:17;;;;;;;50.63;39.28;;;;;;;;;;4970405;28;20105;-68
2021/11/10 01:11:47;;;;;;;50.90;39.15;;;;;;;;;;4977386;28;20035;-68
2021/11/10 01:14:13;;;;;;;53.38;39.15;;;;;;;;;;4970915;28;20034;-68
2021/11/10 01:16:40;;;;;;;47.58;40.05;;;;;;;;;;4976214;28;20035;-68
2021/11/10 01:19:06;;;;;;;60.67;41.17;;;;;;;;;;4947413;28;20022;-68
2021/11/10 01:21:32;;;;;;;49.42;40.38;;;;;;;;;;4973723;28;20019;-68
2021/11/10 01:23:58;;;;;;;53.13;40.25;;;;;;;;;;4973271;28;20030;-68
2021/11/10 01:26:24;;;;;;;58.05;42.00;;;;;;;;;;4953343;28;20042;-68
2021/11/10 01:28:50;;;;;;;54.45;39.85;;;;;;;;;;4971221;28;20693;-68
2021/11/10 01:31:16;;;;;;;51.85;38.92;;;;;;;;;;4972359;28;20529;-68
2021/11/10 01:33:42;;;;;;;54.83;40.83;;;;;;;;;;4968747;28;20035;-68
2021/11/10 01:36:08;;;;;;;58.40;40.00;;;;;;;;;;4972540;28;20027;-68
2021/11/10 01:38:35;;;;;;;51.75;38.50;;;;;;;;;;4968742;28;20047;-68
2021/11/10 01:41:01;;;;;;;52.47;37.97;;;;;;;;;;4971452;28;20019;-68
2021/11/10 01:43:27;;;;;;;54.30;39.88;;;;;;;;;;4952830;28;20031;-68
2021/11/10 01:45:57;;;;;;;50.17;39.03;;;;;;;;;;4971842;28;20019;-68
2021/11/10 01:48:23;;;;;;;44.80;39.58;;;;;;;;;;4954060;28;20023;-68
2021/11/10 01:50:50;;;;;;;49.25;39.22;;;;;;;;;;4970851;28;20026;-68
2021/11/10 01:53:16;;;;;;;49.72;40.95;;;;;;;;;;4966822;28;20031;-68
2021/11/10 01:55:43;;;;;;;51.25;39.45;;;;;;;;;;4954863;28;20066;-68
2021/11/10 01:58:09;;;;;;;47.63;39.42;;;;;;;;;;4969319;28;20053;-68
2021/11/10 02:00:37;;;;;;;52.10;40.25;;;;;;;;;;4972340;28;20027;-68
2021/11/10 02:03:03;;;;;;;46.78;37.80;;;;;;;;;;4950764;28;20066;-68
2021/11/10 02:05:30;;;;;;;51.38;38.78;;;;;;;;;;4970617;28;20026;-68
2021/11/10 02:07:56;;;;;;;50.83;39.97;;;;;;;;;;4974009;28;20019;-68
2021/11/10 02:10:26;;;;;;;54.78;40.50;;;;;;;;;;4971017;28;20480;-68
2021/11/10 02:12:56;;;;;;;55.00;38.63;;;;;;;;;;4952921;28;20103;-68
2021/11/10 02:15:23;;;;;;;49.63;38.75;;;;;;;;;;4970282;28;20030;-68
2021/11/10 02:17:55;;;;;;;53.40;40.92;;;;;;;;;;4951340;28;20488;-68
2021/11/10 02:20:21;;;;;;;56.25;39.25;;;;;;;;;;4972159;28;20042;-68
2021/11/10 02:22:50;;;;;;;50.55;38.95;;;;;;;;;;4953360;28;20034;-68
2021/11/10 02:25:16;;;;;;;47.30;37.47;;;;;;;;;;4969492;28;20134;-68
2021/11/10 02:27:42;;;;;;;49.90;38.28;;;;;;;;;;4971854;28;20027;-68
2021/11/10 02:30:10;;;;;;;53.65;39.33;;;;;;;;;;4967482;28;20081;-68
2021/11/10 02:32:37;;;;;;;54.20;39.92;;;;;;;;;;4970555;28;20074;-68
2021/11/10 02:35:03;;;;;;;61.15;40.60;;;;;;;;;;4967166;28;20023;-68
2021/11/10 02:37:29;;;;;;;48.22;37.78;;;;;;;;;;4980754;28;20052;-68
2021/11/10 02:39:56;;;;;;;55.03;39.05;;;;;;;;;;4973409;28;20026;-68
2021/11/10 02:42:22;;;;;;;60.83;37.20;;;;;;;;;;4969543;28;20035;-68
2021/11/10 02:44:49;;;;;;;56.90;39.78;;;;;;;;;;4983182;28;20026;-68
2021/11/10 02:47:16;;;;;;;52.15;38.80;;;;;;;;;;4983240;28;20028;-68
2021/11/10 02:49:42;;;;;;;53.70;39.65;;;;;;;;;;4975141;28;20047;-68
2021/11/10 02:52:10;;;;;;;56.08;38.95;;;;;;;;;;4972997;28;20442;-68
2021/11/10 02:54:38;;;;;;;56.53;39.47;;;;;;;;;;4969395;28;20027;-68
2021/11/10 02:57:05;;;;;;;47.90;38.13;;;;;;;;;;4979189;28;20109;-67
2021/11/10 02:59:31;;;;;;;47.55;38.90;;;;;;;;;;4969886;28;20033;-68
2021/11/10 03:01:58;;;;;;;60.80;38.65;;;;;;;;;;4975203;28;20022;-68
2021/11/10 03:04:28;;;;;;;62.58;39.20;;;;;;;;;;4968482;28;20033;-68
2021/11/10 03:06:55;;;;;;;53.65;38.80;;;;;;;;;;4975191;28;20027;-68
2021/11/10 03:09:23;;;;;;;50.53;40.13;;;;;;;;;;4970810;28;20106;-68
2021/11/10 03:11:51;;;;;;;55.42;38.33;;;;;;;;;;4986318;28;20031;-68
2021/11/10 03:14:17;;;;;;;57.60;39.60;;;;;;;;;;4962676;28;20027;-68
2021/11/10 03:16:44;;;;;;;50.40;38.88;;;;;;;;;;4970973;28;20488;-68
2021/11/10 03:19:10;;;;;;;47.55;40.13;;;;;;;;;;4977264;28;20030;-68
2021/11/10 03:21:36;;;;;;;51.85;39.25;;;;;;;;;;4968205;28;20529;-68
2021/11/10 03:24:02;;;;;;;50.80;37.72;;;;;;;;;;4966707;28;20034;-68
2021/11/10 03:26:28;;;;;;;64.15;39.80;;;;;;;;;;4971502;28;20084;-68
2021/11/10 03:28:55;;;;;;;47.80;37.60;;;;;;;;;;4980680;28;20517;-68
2021/11/10 03:31:21;;;;;;;57.60;38.90;;;;;;;;;;4968734;28;20099;-68
2021/11/10 03:33:47;;;;;;;53.15;38.65;;;;;;;;;;4964329;28;20039;-68
2021/11/10 03:36:14;;;;;;;54.13;40.70;;;;;;;;;;4966452;28;20019;-68
2021/11/10 03:38:40;;;;;;;57.30;39.45;;;;;;;;;;4974706;28;20030;-68
2021/11/10 03:41:06;;;;;;;52.33;39.72;;;;;;;;;;4977553;28;20442;-68
2021/11/10 03:43:32;;;;;;;68.38;42.63;;;;;;;;;;4968333;28;20027;-68
2021/11/10 03:45:59;;;;;;;49.17;40.00;;;;;;;;;;4974429;28;20022;-67
2021/11/10 03:48:25;;;;;;;62.03;42.85;;;;;;;;;;4967640;28;20403;-68
2021/11/10 03:50:51;;;;;;;57.88;40.10;;;;;;;;;;4954068;28;20546;-68
2021/11/10 03:53:17;;;;;;;48.95;39.03;;;;;;;;;;4958013;28;20492;-68
2021/11/10 03:55:43;;;;;;;54.92;38.15;;;;;;;;;;4971936;28;20023;-68
2021/11/10 03:58:10;;;;;;;50.83;38.58;;;;;;;;;;4967813;28;20037;-68
2021/11/10 04:00:36;;;;;;;57.03;37.88;;;;;;;;;;4971596;28;20077;-68
2021/11/10 04:03:03;;;;;;;49.45;36.60;;;;;;;;;;4973960;28;20030;-68
2021/11/10 04:05:29;;;;;;;56.47;35.75;;;;;;;;;;4968119;28;20061;-68
2021/11/10 04:07:55;;;;;;;50.97;35.30;;;;;;;;;;4965837;28;20023;-68
2021/11/10 04:10:22;;;;;;;49.78;36.92;;;;;;;;;;4973541;28;20387;-68
2021/11/10 04:12:49;;;;;;;54.92;37.10;;;;;;;;;;4946747;28;20039;-68
2021/11/10 04:15:15;;;;;;;51.80;35.75;;;;;;;;;;4972900;28;20026;-67
2021/11/10 04:17:41;;;;;;;53.03;35.33;;;;;;;;;;4974292;28;20031;-68
2021/11/10 04:20:08;;;;;;;50.90;36.40;;;;;;;;;;4975505;28;20029;-68
2021/11/10 04:22:34;;;;;;;55.72;35.50;;;;;;;;;;4965422;28;20061;-68
2021/11/10 04:25:00;;;;;;;48.78;35.92;;;;;;;;;;4979633;28;20050;-68
2021/11/10 04:27:26;;;;;;;52.58;36.15;;;;;;;;;;4972757;28;20118;-68
2021/11/10 04:29:53;;;;;;;53.50;35.38;;;;;;;;;;4962372;28;20402;-68
2021/11/10 04:32:20;;;;;;;52.05;36.55;;;;;;;;;;4949214;28;20035;-68
2021/11/10 04:34:46;;;;;;;45.70;35.38;;;;;;;;;;4959680;28;20392;-68
2021/11/10 04:37:14;;;;;;;51.05;35.05;;;;;;;;;;4967889;28;20376;-68
2021/11/10 04:39:43;;;;;;;50.28;38.00;;;;;;;;;;4976371;28;20027;-68
2021/11/10 04:42:10;;;;;;;52.70;38.08;;;;;;;;;;4966522;28;21596;-68
2021/11/10 04:44:37;;;;;;;47.20;38.30;;;;;;;;;;4965120;28;20491;-68
2021/11/10 04:47:04;;;;;;;47.13;39.47;;;;;;;;;;4952779;28;20031;-68
2021/11/10 04:49:30;;;;;;;57.83;39.15;;;;;;;;;;4968862;28;20464;-68
2021/11/10 04:52:03;;;;;;;49.33;38.03;;;;;;;;;;4976256;28;20030;-68
2021/11/10 04:54:30;;;;;;;54.85;39.15;;;;;;;;;;4971422;28;20409;-68
2021/11/10 04:56:57;;;;;;;53.13;37.25;;;;;;;;;;4964903;28;20033;-68
2021/11/10 04:59:23;;;;;;;57.60;37.22;;;;;;;;;;4969115;28;20035;-68
2021/11/10 05:04:31;;;;;;;54.85;38.92;;;;;;;;;;4970021;28;20046;-68
2021/11/10 05:06:57;;;;;;;49.22;36.72;;;;;;;;;;4949900;28;20030;-68
2021/11/10 05:09:23;;;;;;;64.65;37.72;;;;;;;;;;4953156;28;20594;-67
2021/11/10 05:11:49;;;;;;;44.05;36.30;;;;;;;;;;4969158;28;20023;-68
2021/11/10 05:14:15;;;;;;;47.50;39.17;;;;;;;;;;4951262;28;20038;-68
2021/11/10 05:16:41;;;;;;;53.63;38.15;;;;;;;;;;4958109;28;20058;-68
2021/11/10 05:19:08;;;;;;;52.80;38.97;;;;;;;;;;4977686;28;20446;-68
2021/11/10 05:21:34;;;;;;;59.72;39.33;;;;;;;;;;4972141;28;20034;-68
2021/11/10 05:24:00;;;;;;;58.25;38.58;;;;;;;;;;4967904;28;20124;-68
2021/11/10 05:26:26;;;;;;;47.22;37.00;;;;;;;;;;4969096;28;20043;-68
2021/11/10 05:28:53;;;;;;;50.92;37.10;;;;;;;;;;4955384;28;20090;-68
2021/11/10 05:31:19;;;;;;;53.78;39.08;;;;;;;;;;4970157;28;20031;-67
2021/11/10 05:33:45;;;;;;;61.35;40.33;;;;;;;;;;4969998;28;20031;-68
2021/11/10 05:36:11;;;;;;;44.08;36.10;;;;;;;;;;4972126;28;20023;-68
2021/11/10 05:38:37;;;;;;;46.92;37.33;;;;;;;;;;4968884;28;20030;-68
2021/11/10 05:41:03;;;;;;;46.45;36.20;;;;;;;;;;4948430;28;20027;-68
2021/11/10 05:43:29;;;;;;;53.03;37.17;;;;;;;;;;4980506;28;20088;-67
2021/11/10 05:45:55;;;;;;;47.47;36.35;;;;;;;;;;4968669;28;20038;-67
2021/11/10 05:48:21;;;;;;;50.92;38.28;;;;;;;;;;4967563;28;20027;-68
2021/11/10 05:50:47;;;;;;;54.70;39.67;;;;;;;;;;4951513;28;20042;-68
2021/11/10 05:53:13;;;;;;;48.33;37.78;;;;;;;;;;4947672;28;20042;-68
2021/11/10 05:55:41;;;;;;;49.03;39.95;;;;;;;;;;4968935;28;20029;-70
2021/11/10 05:58:07;;;;;;;46.30;38.00;;;;;;;;;;4967759;28;20646;-69
2021/11/10 06:00:33;;;;;;;47.45;38.75;;;;;;;;;;4969270;28;20115;-69
2021/11/10 06:03:00;;;;;;;50.00;40.42;;;;;;;;;;4964474;28;20070;-69
2021/11/10 06:05:26;;;;;;;48.30;38.03;;;;;;;;;;4968302;28;20031;-67
2021/11/10 06:07:53;;;;;;;51.03;38.03;;;;;;;;;;4964205;28;20031;-68
2021/11/10 06:10:21;;;;;;;50.55;37.65;;;;;;;;;;4965546;28;20042;-68
2021/11/10 06:12:47;;;;;;;55.35;36.95;;;;;;;;;;5006611;23;20042;-69
2021/11/10 06:15:14;;;;;;;46.80;37.72;;;;;;;;;;4894297;29;20032;-69
2021/11/10 06:17:40;;;;;;;58.42;36.35;;;;;;;;;;4894743;29;20044;-69
2021/11/10 06:20:07;;;;;;;54.58;38.70;;;;;;;;;;4892130;29;20040;-69
2021/11/10 06:22:33;;;;;;;45.15;39.10;;;;;;;;;;4893521;29;20040;-69
2021/11/10 06:25:00;;;;;;;55.15;39.05;;;;;;;;;;4895320;29;20025;-70
2021/11/10 06:27:26;;;;;;;62.78;38.67;;;;;;;;;;4898010;29;20274;-70
2021/11/10 06:29:52;;;;;;;47.00;37.60;;;;;;;;;;4894072;29;20067;-70
2021/11/10 06:32:19;;;;;;;45.70;35.92;;;;;;;;;;4896285;29;20039;-70
2021/11/10 06:34:45;;;;;;;50.15;37.20;;;;;;;;;;4900100;29;20032;-70
2021/11/10 06:37:11;;;;;;;44.28;35.17;;;;;;;;;;4894950;29;20164;-70
2021/11/10 06:39:37;;;;;;;49.88;36.53;;;;;;;;;;4889833;29;20080;-70
2021/11/10 06:42:04;;;;;;;45.88;35.22;;;;;;;;;;4893792;29;20045;-70
2021/11/10 06:44:30;;;;;;;53.70;37.20;;;;;;;;;;4878946;29;20028;-70
2021/11/10 06:46:59;;;;;;;45.97;35.45;;;;;;;;;;4894557;29;20080;-70
2021/11/10 06:49:25;;;;;;;50.40;34.90;;;;;;;;;;4885099;29;20500;-70
2021/11/10 06:51:51;;;;;;;41.95;35.70;;;;;;;;;;4878347;29;20040;-70
2021/11/10 06:54:17;;;;;;;44.90;33.80;;;;;;;;;;4895551;29;20051;-71
2021/11/10 06:56:43;;;;;;;46.92;35.47;;;;;;;;;;4896805;29;20029;-71
2021/11/10 06:59:10;;;;;;;45.63;37.58;;;;;;;;;;4893524;29;20037;-71
2021/11/10 07:01:36;;;;;;;59.05;35.42;;;;;;;;;;4894742;29;20073;-70
2021/11/10 07:04:02;;;;;;;44.88;36.22;;;;;;;;;;4896270;29;20025;-71
2021/11/10 07:06:28;;;;;;;47.63;35.60;;;;;;;;;;4895579;29;20036;-70
2021/11/10 07:08:54;;;;;;;47.70;38.40;;;;;;;;;;4889204;29;20107;-71
2021/11/10 07:11:20;;;;;;;55.03;37.35;;;;;;;;;;4895443;29;20043;-71
2021/11/10 07:13:47;;;;;;;49.35;37.30;;;;;;;;;;4894998;29;20104;-70
2021/11/10 07:16:13;;;;;;;47.33;35.47;;;;;;;;;;4896916;29;20052;-70
2021/11/10 07:18:39;;;;;;;42.78;35.88;;;;;;;;;;4892499;29;20506;-70
2021/11/10 07:21:06;;;;;;;47.67;39.30;;;;;;;;;;4903113;29;20036;-70
2021/11/10 07:23:32;;;;;;;46.13;37.25;;;;;;;;;;4896253;29;20036;-70
2021/11/10 07:25:58;;;;;;;46.10;36.17;;;;;;;;;;4896680;29;20100;-71
2021/11/10 07:28:24;;;;;;;45.03;37.08;;;;;;;;;;4884557;29;20566;-71
2021/11/10 07:30:51;;;;;;;46.38;35.05;;;;;;;;;;4879199;29;20140;-71
2021/11/10 07:33:17;;;;;;;42.10;34.60;;;;;;;;;;4895384;29;20116;-71
2021/11/10 07:35:44;;;;;;;40.40;34.80;;;;;;;;;;4896132;29;20324;-71
2021/11/10 07:38:10;;;;;;;44.00;34.72;;;;;;;;;;4893856;29;20028;-70
2021/11/10 07:40:36;;;;;;;46.83;35.03;;;;;;;;;;4895925;29;20120;-71
2021/11/10 07:43:02;;;;;;;40.17;35.63;;;;;;;;;;4894505;29;20152;-70
2021/11/10 07:45:34;;;;;;;37.00;31.95;;;;;;;;;;4896482;29;20039;-71
2021/11/10 07:48:02;;;;;;;45.58;31.30;;;;;;;;;;4885996;29;20634;-70
2021/11/10 07:50:29;;;;;;;40.75;33.08;;;;;;;;;;4894899;29;20033;-70
2021/11/10 07:52:55;;;;;;;35.63;31.58;;;;;;;;;;4895447;29;20033;-71
2021/11/10 07:55:23;;;;;;;39.60;32.22;;;;;;;;;;4896013;29;20032;-71
2021/11/10 07:57:49;;;;;;;46.13;31.27;;;;;;;;;;4895136;29;20024;-70
2021/11/10 08:00:17;;;;;;;35.58;31.70;;;;;;;;;;4871778;29;20040;-71
2021/11/10 08:02:43;;;;;;;38.78;31.45;;;;;;;;;;4895175;29;20052;-69
2021/11/10 08:05:10;;;;;;;41.90;31.83;;;;;;;;;;4890329;29;20437;-69
2021/11/10 08:07:36;;;;;;;41.35;31.00;;;;;;;;;;4892287;29;20029;-69
2021/11/10 08:10:03;;;;;;;38.75;31.25;;;;;;;;;;4893589;29;20020;-69
2021/11/10 08:12:31;;;;;;;41.97;30.27;;;;;;;;;;4895884;29;20497;-68
2021/11/10 08:14:57;;;;;;;35.42;29.38;;;;;;;;;;4894948;29;20419;-69
2021/11/10 08:17:23;;;;;;;35.15;29.55;;;;;;;;;;4902468;29;20059;-69
2021/11/10 08:19:49;;;;;;;36.63;29.23;;;;;;;;;;4890722;29;20029;-71
2021/11/10 08:22:15;;;;;;;38.90;30.08;;;;;;;;;;4895544;29;20032;-71
2021/11/10 08:24:42;;;;;;;32.70;28.77;;;;;;;;;;4887530;29;20033;-69
2021/11/10 08:27:08;;;;;;;34.50;28.50;;;;;;;;;;4895466;29;20028;-69
2021/11/10 08:29:34;;;;;;;32.42;27.92;;;;;;;;;;4891720;29;20028;-71
2021/11/10 08:32:00;;;;;;;36.83;29.30;;;;;;;;;;4895322;29;20063;-69
2021/11/10 08:34:26;;;;;;;38.92;28.25;;;;;;;;;;4893438;29;20041;-69
2021/11/10 08:36:52;;;;;;;30.90;27.42;;;;;;;;;;4895213;29;20088;-69
2021/11/10 08:39:18;;;;;;;32.70;26.95;;;;;;;;;;4891264;29;20193;-69
2021/11/10 08:41:47;;;;;;;35.17;28.35;;;;;;;;;;4893723;29;20411;-69
2021/11/10 08:44:14;;;;;;;32.22;28.45;;;;;;;;;;4885402;29;20108;-69
2021/11/10 08:46:41;;;;;;;36.60;29.20;;;;;;;;;;4894854;29;20088;-69
2021/11/10 08:49:07;;;;;;;36.58;30.10;;;;;;;;;;4890948;29;20084;-69
2021/11/10 08:51:33;;;;;;;40.60;30.58;;;;;;;;;;4895468;29;20279;-69
2021/11/10 08:53:59;;;;;;;37.83;29.15;;;;;;;;;;4906402;29;20456;-69
2021/11/10 08:56:25;;;;;;;36.10;29.73;;;;;;;;;;4898964;29;20499;-71
2021/11/10 08:58:51;;;;;;;34.92;29.40;;;;;;;;;;4891536;29;20507;-70
2021/11/10 09:01:18;;;;;;;42.00;30.25;;;;;;;;;;4895302;29;20434;-70
2021/11/10 09:03:44;;;;;;;42.55;30.15;;;;;;;;;;4891827;29;20559;-69
2021/11/10 09:06:12;;;;;;;36.55;29.48;;;;;;;;;;4894999;29;20028;-69
2021/11/10 09:08:38;;;;;;;35.58;28.27;;;;;;;;;;4891987;29;20036;-69
2021/11/10 09:11:05;;;;;;;37.63;29.45;;;;;;;;;;4895160;29;20080;-71
2021/11/10 09:13:31;;;;;;;34.78;29.30;;;;;;;;;;4893085;29;20044;-70
2021/11/10 09:15:58;;;;;;;38.40;28.80;;;;;;;;;;4899160;29;20044;-71
2021/11/10 09:18:24;;;;;;;36.72;29.40;;;;;;;;;;4894190;29;20028;-71
2021/11/10 09:20:51;;;;;;;44.08;29.63;;;;;;;;;;4897328;29;20461;-69
2021/11/10 09:23:18;;;;;;;36.15;28.95;;;;;;;;;;4897887;29;20029;-71
2021/11/10 09:25:45;;;;;;;40.50;29.10;;;;;;;;;;4898103;29;20551;-71
2021/11/10 09:28:14;;;;;;;41.33;30.08;;;;;;;;;;4895008;29;20056;-71
2021/11/10 09:30:41;;;;;;;38.65;29.85;;;;;;;;;;4898330;29;20036;-71
2021/11/10 09:33:08;;;;;;;42.15;33.08;;;;;;;;;;4902847;29;20581;-71
2021/11/10 09:35:35;;;;;;;41.67;34.97;;;;;;;;;;4897820;29;20546;-71
2021/11/10 09:38:02;;;;;;;44.53;35.22;;;;;;;;;;4893997;29;20337;-71
2021/11/10 09:40:29;;;;;;;40.13;35.63;;;;;;;;;;4894339;29;20455;-71
2021/11/10 09:42:57;;;;;;;45.22;34.83;;;;;;;;;;4902886;29;20464;-71
2021/11/10 09:45:23;;;;;;;51.58;36.22;;;;;;;;;;4898251;29;20111;-69
2021/11/10 09:47:50;;;;;;;45.50;34.33;;;;;;;;;;4895498;29;20298;-71
2021/11/10 09:50:17;;;;;;;37.55;31.52;;;;;;;;;;4897084;29;20033;-71
2021/11/10 09:52:44;;;;;;;42.45;34.65;;;;;;;;;;4903600;29;20073;-71
2021/11/10 09:55:11;;;;;;;44.33;34.72;;;;;;;;;;4898208;29;20055;-71
2021/11/10 09:57:37;;;;;;;43.20;34.08;;;;;;;;;;4896331;29;20173;-71
2021/11/10 10:00:08;;;;;;;42.88;33.38;;;;;;;;;;4892843;29;20080;-71
2021/11/10 10:02:34;;;;;;;45.20;35.10;;;;;;;;;;4896557;29;20032;-69
2021/11/10 10:05:00;;;;;;;41.65;37.13;;;;;;;;;;4897580;29;20024;-69
2021/11/10 10:07:27;;;;;;;38.65;34.03;;;;;;;;;;4894919;29;20112;-69
2021/11/10 10:09:53;;;;;;;43.15;33.78;;;;;;;;;;4894397;29;20026;-70
2021/11/10 10:12:19;;;;;;;44.35;35.40;;;;;;;;;;4882896;29;20119;-69
2021/11/10 10:14:49;;;;;;;47.75;36.88;;;;;;;;;;4898455;29;20416;-70
2021/11/10 10:17:32;;;;;;;43.70;35.47;;;;;;;;;;4896386;29;20043;-69
2021/11/10 10:19:58;;;;;;;45.05;35.53;;;;;;;;;;4892894;29;20454;-69
2021/11/10 10:22:25;;;;;;;45.38;36.60;;;;;;;;;;4897757;29;20400;-69
2021/11/10 10:24:58;;;;;;;42.92;36.00;;;;;;;;;;4894385;29;20092;-69
2021/11/10 10:27:29;;;;;;;54.53;36.92;;;;;;;;;;4888544;29;20080;-69
2021/11/10 10:30:14;;;;;;;42.10;36.23;;;;;;;;;;4901770;29;20035;-69
2021/11/10 10:32:40;;;;;;;42.35;33.90;;;;;;;;;;4896805;29;20853;-69
2021/11/10 10:35:25;;;;;;;53.08;37.20;;;;;;;;;;4897074;29;20032;-69
2021/11/10 10:37:51;;;;;;;48.17;37.13;;;;;;;;;;4887124;29;20294;-69
2021/11/10 10:40:19;;;;;;;48.83;35.15;;;;;;;;;;4896792;29;20032;-69
2021/11/10 10:42:45;;;;;;;44.15;35.92;;;;;;;;;;4896073;29;20032;-69
2021/11/10 10:45:27;;;;;;;44.67;36.50;;;;;;;;;;4897220;29;20029;-69
2021/11/10 10:47:55;;;;;;;43.40;37.00;;;;;;;;;;4895860;29;20719;-69
2021/11/10 10:50:34;;;;;;;43.40;36.72;;;;;;;;;;4901488;29;20035;-69
2021/11/10 10:53:00;;;;;;;48.70;37.35;;;;;;;;;;4890074;29;20031;-69
2021/11/10 10:55:33;;;;;;;44.65;34.83;;;;;;;;;;4897121;29;20120;-69
2021/11/10 10:58:00;;;;;;;39.70;35.63;;;;;;;;;;4893431;29;20040;-71
2021/11/10 11:00:29;;;;;;;42.78;34.10;;;;;;;;;;4896705;29;20055;-69
2021/11/10 11:02:56;;;;;;;42.42;35.15;;;;;;;;;;4896414;29;20024;-69
2021/11/10 11:05:41;;;;;;;39.60;34.05;;;;;;;;;;4896952;29;20444;-69
2021/11/10 11:08:26;;;;;;;43.83;36.55;;;;;;;;;;4884498;29;20145;-69
2021/11/10 11:10:52;;;;;;;41.35;34.30;;;;;;;;;;4895492;29;20036;-69
2021/11/10 11:13:23;;;;;;;41.97;33.67;;;;;;;;;;4894676;29;20052;-69
2021/11/10 11:16:05;;;;;;;44.35;35.45;;;;;;;;;;4887255;29;20755;-69
2021/11/10 11:18:31;;;;;;;45.60;36.17;;;;;;;;;;4891827;29;20036;-69
2021/11/10 11:20:57;;;;;;;42.30;34.88;;;;;;;;;;4895634;29;20480;-69
2021/11/10 11:23:40;;;;;;;45.05;36.95;;;;;;;;;;4894638;29;20465;-69
2021/11/10 11:26:06;;;;;;;40.97;34.83;;;;;;;;;;4900780;29;20028;-69
2021/11/10 11:28:37;;;;;;;40.38;35.92;;;;;;;;;;4893852;29;20505;-69
2021/11/10 11:31:03;;;;;;;43.08;38.03;;;;;;;;;;4896290;29;20056;-69
2021/11/10 11:33:33;;;;;;;43.17;37.17;;;;;;;;;;4895364;29;20389;-71
2021/11/10 11:36:00;;;;;;;46.55;36.15;;;;;;;;;;4888251;29;20571;-69
2021/11/10 11:38:27;;;;;;;37.20;33.20;;;;;;;;;;4893172;29;20035;-69
2021/11/10 11:40:55;;;;;;;40.05;33.75;;;;;;;;;;4894915;29;20036;-71
2021/11/10 11:43:24;;;;;;;42.42;34.30;;;;;;;;;;4878291;29;20500;-70
2021/11/10 11:45:52;;;;;;;40.95;34.05;;;;;;;;;;4902236;29;20068;-69
2021/11/10 11:48:19;;;;;;;39.38;34.40;;;;;;;;;;4893057;29;20270;-69
2021/11/10 11:50:46;;;;;;;47.25;34.63;;;;;;;;;;4895887;29;20024;-69
2021/11/10 11:53:12;;;;;;;40.45;35.65;;;;;;;;;;4890017;29;20029;-69
2021/11/10 11:55:44;;;;;;;45.65;34.88;;;;;;;;;;4893344;29;20468;-69
2021/11/10 11:58:13;;;;;;;46.65;34.85;;;;;;;;;;4885948;29;20032;-72
2021/11/10 12:00:41;;;;;;;46.45;35.00;;;;;;;;;;4895598;29;20028;-71
2021/11/10 12:03:18;;;;;;;43.35;37.58;;;;;;;;;;4894975;29;20039;-71
2021/11/10 12:05:44;;;;;;;49.70;36.53;;;;;;;;;;4903331;29;20029;-71
2021/11/10 12:08:10;;;;;;;41.83;37.67;;;;;;;;;;4892306;29;20025;-71
2021/11/10 12:10:39;;;;;;;43.97;37.60;;;;;;;;;;4895416;29;20041;-71
2021/11/10 12:13:17;;;;;;;51.08;38.58;;;;;;;;;;4886849;29;20047;-71
2021/11/10 12:15:58;;;;;;;44.15;36.88;;;;;;;;;;4895438;29;20036;-71
2021/11/10 12:18:25;;;;;;;43.22;37.17;;;;;;;;;;4891039;29;20032;-71
2021/11/10 12:21:01;;;;;;;46.85;38.13;;;;;;;;;;4895146;29;20037;-71
2021/11/10 12:23:50;;;;;;;45.58;37.28;;;;;;;;;;4894937;29;20115;-71
2021/11/10 12:26:17;;;;;;;46.30;36.33;;;;;;;;;;4893016;29;20029;-71
2021/11/10 12:28:55;;;;;;;41.65;35.88;;;;;;;;;;4872969;29;20164;-71
2021/11/10 12:31:32;;;;;;;45.10;36.85;;;;;;;;;;4893155;29;20415;-72
2021/11/10 12:33:58;;;;;;;44.97;36.97;;;;;;;;;;4894210;29;20501;-71
2021/11/10 12:36:43;;;;;;;49.03;37.60;;;;;;;;;;4894595;29;20025;-71
2021/11/10 12:39:10;;;;;;;43.83;36.85;;;;;;;;;;4892287;29;20491;-71
2021/11/10 12:41:48;;;;;;;54.45;38.47;;;;;;;;;;4891481;29;20078;-71
2021/11/10 12:44:25;;;;;;;50.17;38.78;;;;;;;;;;4894876;29;20120;-72
2021/11/10 12:46:52;;;;;;;52.50;38.88;;;;;;;;;;4883399;29;20085;-71
2021/11/10 12:49:18;;;;;;;52.45;37.53;;;;;;;;;;4890117;29;20040;-71
2021/11/10 12:51:44;;;;;;;45.33;38.60;;;;;;;;;;4897822;29;20028;-71
2021/11/10 12:54:24;;;;;;;44.45;36.83;;;;;;;;;;4897302;29;20025;-72
2021/11/10 12:56:51;;;;;;;48.45;37.78;;;;;;;;;;4897800;29;20164;-71
2021/11/10 12:59:25;;;;;;;44.53;37.70;;;;;;;;;;4897574;29;20080;-71
2021/11/10 13:01:51;;;;;;;44.72;38.65;;;;;;;;;;4897739;29;20032;-72
2021/11/10 13:04:23;;;;;;;45.67;36.88;;;;;;;;;;4895292;29;20020;-71
2021/11/10 13:06:51;;;;;;;50.03;37.28;;;;;;;;;;4903919;29;20089;-72
2021/11/10 13:09:27;;;;;;;52.20;37.90;;;;;;;;;;4895027;29;20119;-72
2021/11/10 13:11:54;;;;;;;45.63;38.10;;;;;;;;;;4881457;29;20116;-71
2021/11/10 13:14:24;;;;;;;44.47;36.92;;;;;;;;;;4903641;29;20135;-71
2021/11/10 13:16:59;;;;;;;47.00;38.35;;;;;;;;;;4898710;29;20051;-71
2021/11/10 13:19:37;;;;;;;47.58;37.88;;;;;;;;;;4893146;29;20032;-71
2021/11/10 13:22:04;;;;;;;49.85;37.42;;;;;;;;;;4897122;29;20033;-71
2021/11/10 13:24:30;;;;;;;44.80;36.58;;;;;;;;;;4896816;29;20028;-71
2021/11/10 13:26:56;;;;;;;45.30;36.97;;;;;;;;;;4899727;29;20487;-71
2021/11/10 13:29:23;;;;;;;49.00;37.22;;;;;;;;;;4888195;29;20041;-71
2021/11/10 13:32:08;;;;;;;53.20;40.70;;;;;;;;;;4900316;29;20564;-71
2021/11/10 13:34:34;;;;;;;49.35;38.03;;;;;;;;;;4898114;29;20164;-71
2021/11/10 13:37:00;;;;;;;44.97;37.58;;;;;;;;;;4897257;29;20036;-71
2021/11/10 13:39:27;;;;;;;48.80;38.40;;;;;;;;;;4898177;29;20029;-72
2021/11/10 13:41:56;;;;;;;49.05;38.10;;;;;;;;;;4899163;29;20063;-72
2021/11/10 13:44:31;;;;;;;45.05;36.72;;;;;;;;;;4899067;29;20390;-71
2021/11/10 13:46:58;;;;;;;49.42;38.60;;;;;;;;;;4897720;29;20358;-71
2021/11/10 13:49:26;;;;;;;54.17;37.17;;;;;;;;;;4897200;29;20031;-71
2021/11/10 13:52:03;;;;;;;46.38;37.13;;;;;;;;;;4898563;29;20472;-71
2021/11/10 13:54:32;;;;;;;43.83;37.53;;;;;;;;;;4891074;29;20112;-71
2021/11/10 13:57:04;;;;;;;47.55;38.85;;;;;;;;;;4905239;29;20035;-71
2021/11/10 13:59:33;;;;;;;45.30;37.45;;;;;;;;;;4890531;29;20343;-71
2021/11/10 14:02:01;;;;;;;46.47;37.08;;;;;;;;;;4899437;29;20111;-72
2021/11/10 14:04:28;;;;;;;50.40;38.78;;;;;;;;;;4892112;29;20495;-71
2021/11/10 14:07:03;;;;;;;45.13;36.85;;;;;;;;;;4893302;29;20029;-71
2021/11/10 14:09:30;;;;;;;51.58;38.80;;;;;;;;;;4889041;29;20076;-71
2021/11/10 14:12:15;;;;;;;49.10;38.15;;;;;;;;;;4898952;29;20390;-71
2021/11/10 14:14:41;;;;;;;41.05;36.72;;;;;;;;;;4896044;29;20056;-71
2021/11/10 14:17:07;;;;;;;51.78;39.08;;;;;;;;;;4892738;29;20032;-72
2021/11/10 14:19:33;;;;;;;50.85;37.42;;;;;;;;;;4875245;29;20391;-71
2021/11/10 14:22:02;;;;;;;45.70;37.65;;;;;;;;;;4894137;29;20036;-71